sensor_id;sensor_type;location;lat;lon;timestamp;P1;durP1;ratioP1;P2;durP2;ratioP2
38513;SDS011;24282;48.400;10.808;2023-04-28T00:01:15;4.43;;;3.33;;
38513;SDS011;24282;48.400;10.808;2023-04-28T00:03:41;5.70;;;3.43;;
38513;SDS011;24282;48.400;10.808;2023-04-28T00:06:08;4.97;;;3.47;;
38513;SDS011;24282;48.400;10.808;2023-04-28T00:08:35;7.67;;;4.17;;
38513;SDS011;24282;48.400;10.808;2023-04-28T00:11:01;4.53;;;3.30;;
38513;SDS011;24282;48.400;10.808;2023-04-28T00:13:27;4.37;;;3.50;;
38513;SDS011;24282;48.400;10.808;2023-04-28T00:15:53;5.80;;;3.70;;
38513;SDS011;24282;48.400;10.808;2023-04-28T00:18:19;5.13;;;3.37;;
38513;SDS011;24282;48.400;10.808;2023-04-28T00:20:45;7.67;;;3.47;;
38513;SDS011;24282;48.400;10.808;2023-04-28T00:23:11;5.00;;;3.20;;
38513;SDS011;24282;48.400;10.808;2023-04-28T00:25:37;4.83;;;3.30;;
38513;SDS011;24282;48.400;10.808;2023-04-28T00:28:03;4.77;;;3.63;;
38513;SDS011;24282;48.400;10.808;2023-04-28T00:30:29;5.63;;;3.63;;
38513;SDS011;24282;48.400;10.808;2023-04-28T00:32:55;5.77;;;3.27;;
38513;SDS011;24282;48.400;10.808;2023-04-28T00:35:21;5.17;;;3.67;;
38513;SDS011;24282;48.400;10.808;2023-04-28T00:37:47;5.40;;;3.17;;
38513;SDS011;24282;48.400;10.808;2023-04-28T00:40:12;4.80;;;2.90;;
38513;SDS011;24282;48.400;10.808;2023-04-28T00:42:38;6.33;;;4.00;;
38513;SDS011;24282;48.400;10.808;2023-04-28T00:45:05;5.27;;;3.20;;
38513;SDS011;24282;48.400;10.808;2023-04-28T00:47:35;4.30;;;2.87;;
38513;SDS011;24282;48.400;10.808;2023-04-28T00:50:02;4.27;;;3.07;;
38513;SDS011;24282;48.400;10.808;2023-04-28T00:52:32;5.50;;;3.53;;
38513;SDS011;24282;48.400;10.808;2023-04-28T00:54:57;4.20;;;2.80;;
38513;SDS011;24282;48.400;10.808;2023-04-28T00:57:23;4.93;;;2.93;;
38513;SDS011;24282;48.400;10.808;2023-04-28T00:59:49;4.17;;;2.67;;
38513;SDS011;24282;48.400;10.808;2023-04-28T01:02:14;5.57;;;3.13;;
38513;SDS011;24282;48.400;10.808;2023-04-28T01:04:45;4.33;;;3.13;;
38513;SDS011;24282;48.400;10.808;2023-04-28T01:07:13;4.17;;;2.93;;
38513;SDS011;24282;48.400;10.808;2023-04-28T01:09:38;4.33;;;3.27;;
38513;SDS011;24282;48.400;10.808;2023-04-28T01:12:05;6.53;;;3.10;;
38513;SDS011;24282;48.400;10.808;2023-04-28T01:14:40;5.00;;;3.27;;
38513;SDS011;24282;48.400;10.808;2023-04-28T01:17:06;4.67;;;3.50;;
38513;SDS011;24282;48.400;10.808;2023-04-28T01:19:33;4.40;;;3.40;;
38513;SDS011;24282;48.400;10.808;2023-04-28T01:21:59;5.80;;;4.30;;
38513;SDS011;24282;48.400;10.808;2023-04-28T01:24:25;6.00;;;4.07;;
38513;SDS011;24282;48.400;10.808;2023-04-28T01:26:51;5.47;;;4.37;;
38513;SDS011;24282;48.400;10.808;2023-04-28T01:29:16;6.60;;;5.13;;
38513;SDS011;24282;48.400;10.808;2023-04-28T01:31:42;5.87;;;4.53;;
38513;SDS011;24282;48.400;10.808;2023-04-28T01:34:08;6.43;;;4.97;;
38513;SDS011;24282;48.400;10.808;2023-04-28T01:36:35;5.20;;;4.27;;
38513;SDS011;24282;48.400;10.808;2023-04-28T01:39:01;6.67;;;4.63;;
38513;SDS011;24282;48.400;10.808;2023-04-28T01:41:27;5.40;;;4.57;;
38513;SDS011;24282;48.400;10.808;2023-04-28T01:43:52;7.63;;;4.90;;
38513;SDS011;24282;48.400;10.808;2023-04-28T01:46:18;6.10;;;4.50;;
38513;SDS011;24282;48.400;10.808;2023-04-28T01:48:44;6.27;;;4.63;;
38513;SDS011;24282;48.400;10.808;2023-04-28T01:51:11;6.63;;;4.73;;
38513;SDS011;24282;48.400;10.808;2023-04-28T01:53:37;5.57;;;4.80;;
38513;SDS011;24282;48.400;10.808;2023-04-28T01:56:03;6.63;;;4.80;;
38513;SDS011;24282;48.400;10.808;2023-04-28T01:58:28;5.43;;;4.37;;
38513;SDS011;24282;48.400;10.808;2023-04-28T02:00:55;6.57;;;4.70;;
38513;SDS011;24282;48.400;10.808;2023-04-28T02:03:21;8.73;;;5.67;;
38513;SDS011;24282;48.400;10.808;2023-04-28T02:05:47;6.33;;;5.07;;
38513;SDS011;24282;48.400;10.808;2023-04-28T02:08:13;6.03;;;4.60;;
38513;SDS011;24282;48.400;10.808;2023-04-28T02:10:39;7.33;;;4.80;;
38513;SDS011;24282;48.400;10.808;2023-04-28T02:13:05;8.80;;;5.90;;
38513;SDS011;24282;48.400;10.808;2023-04-28T02:15:31;9.20;;;7.23;;
38513;SDS011;24282;48.400;10.808;2023-04-28T02:17:57;7.43;;;5.87;;
38513;SDS011;24282;48.400;10.808;2023-04-28T02:20:22;6.40;;;4.60;;
38513;SDS011;24282;48.400;10.808;2023-04-28T02:22:48;5.80;;;4.47;;
38513;SDS011;24282;48.400;10.808;2023-04-28T02:25:14;6.70;;;4.53;;
38513;SDS011;24282;48.400;10.808;2023-04-28T02:27:39;6.63;;;4.53;;
38513;SDS011;24282;48.400;10.808;2023-04-28T02:30:05;6.17;;;4.63;;
38513;SDS011;24282;48.400;10.808;2023-04-28T02:32:31;5.33;;;3.90;;
38513;SDS011;24282;48.400;10.808;2023-04-28T02:34:57;8.27;;;4.00;;
38513;SDS011;24282;48.400;10.808;2023-04-28T02:37:24;5.20;;;4.17;;
38513;SDS011;24282;48.400;10.808;2023-04-28T02:39:50;4.87;;;4.13;;
38513;SDS011;24282;48.400;10.808;2023-04-28T02:42:16;6.40;;;4.17;;
38513;SDS011;24282;48.400;10.808;2023-04-28T02:44:42;4.93;;;3.90;;
38513;SDS011;24282;48.400;10.808;2023-04-28T02:47:07;5.83;;;4.13;;
38513;SDS011;24282;48.400;10.808;2023-04-28T02:49:33;5.60;;;4.23;;
38513;SDS011;24282;48.400;10.808;2023-04-28T02:51:59;6.40;;;4.10;;
38513;SDS011;24282;48.400;10.808;2023-04-28T02:54:25;5.47;;;4.10;;
38513;SDS011;24282;48.400;10.808;2023-04-28T02:56:55;5.17;;;3.87;;
38513;SDS011;24282;48.400;10.808;2023-04-28T02:59:22;5.20;;;3.73;;
38513;SDS011;24282;48.400;10.808;2023-04-28T03:01:48;4.77;;;4.00;;
38513;SDS011;24282;48.400;10.808;2023-04-28T03:04:15;5.40;;;4.20;;
38513;SDS011;24282;48.400;10.808;2023-04-28T03:06:41;4.43;;;3.77;;
38513;SDS011;24282;48.400;10.808;2023-04-28T03:09:07;6.23;;;3.83;;
38513;SDS011;24282;48.400;10.808;2023-04-28T03:11:34;5.40;;;4.17;;
38513;SDS011;24282;48.400;10.808;2023-04-28T03:14:01;6.27;;;4.17;;
38513;SDS011;24282;48.400;10.808;2023-04-28T03:16:26;5.20;;;3.83;;
38513;SDS011;24282;48.400;10.808;2023-04-28T03:18:52;5.57;;;4.23;;
38513;SDS011;24282;48.400;10.808;2023-04-28T03:21:18;5.07;;;3.93;;
38513;SDS011;24282;48.400;10.808;2023-04-28T03:23:44;4.93;;;3.80;;
38513;SDS011;24282;48.400;10.808;2023-04-28T03:26:11;5.43;;;4.07;;
38513;SDS011;24282;48.400;10.808;2023-04-28T03:28:37;6.23;;;4.47;;
38513;SDS011;24282;48.400;10.808;2023-04-28T03:31:03;5.00;;;4.10;;
38513;SDS011;24282;48.400;10.808;2023-04-28T03:33:29;6.30;;;4.57;;
38513;SDS011;24282;48.400;10.808;2023-04-28T03:35:55;4.43;;;3.93;;
38513;SDS011;24282;48.400;10.808;2023-04-28T03:38:21;6.10;;;4.40;;
38513;SDS011;24282;48.400;10.808;2023-04-28T03:40:47;4.57;;;3.67;;
38513;SDS011;24282;48.400;10.808;2023-04-28T03:43:13;6.43;;;4.33;;
38513;SDS011;24282;48.400;10.808;2023-04-28T03:45:45;4.63;;;3.75;;
38513;SDS011;24282;48.400;10.808;2023-04-28T03:48:11;6.03;;;4.43;;
38513;SDS011;24282;48.400;10.808;2023-04-28T03:50:37;5.20;;;3.87;;
38513;SDS011;24282;48.400;10.808;2023-04-28T03:53:05;7.57;;;4.60;;
38513;SDS011;24282;48.400;10.808;2023-04-28T03:55:31;5.53;;;3.90;;
38513;SDS011;24282;48.400;10.808;2023-04-28T03:57:57;4.57;;;3.87;;
38513;SDS011;24282;48.400;10.808;2023-04-28T04:00:23;7.77;;;4.10;;
38513;SDS011;24282;48.400;10.808;2023-04-28T04:02:52;4.93;;;4.33;;
38513;SDS011;24282;48.400;10.808;2023-04-28T04:05:18;5.87;;;3.73;;
38513;SDS011;24282;48.400;10.808;2023-04-28T04:07:44;4.83;;;4.20;;
38513;SDS011;24282;48.400;10.808;2023-04-28T04:10:10;12.33;;;9.20;;
38513;SDS011;24282;48.400;10.808;2023-04-28T04:12:38;9.23;;;7.00;;
38513;SDS011;24282;48.400;10.808;2023-04-28T04:15:04;8.60;;;6.20;;
38513;SDS011;24282;48.400;10.808;2023-04-28T04:17:32;5.93;;;4.77;;
38513;SDS011;24282;48.400;10.808;2023-04-28T04:19:58;6.63;;;4.40;;
38513;SDS011;24282;48.400;10.808;2023-04-28T04:22:25;5.27;;;3.93;;
38513;SDS011;24282;48.400;10.808;2023-04-28T04:24:51;4.53;;;3.83;;
38513;SDS011;24282;48.400;10.808;2023-04-28T04:27:16;5.23;;;4.23;;
38513;SDS011;24282;48.400;10.808;2023-04-28T04:29:43;4.63;;;3.90;;
38513;SDS011;24282;48.400;10.808;2023-04-28T04:32:13;6.90;;;4.23;;
38513;SDS011;24282;48.400;10.808;2023-04-28T04:34:40;4.90;;;3.93;;
38513;SDS011;24282;48.400;10.808;2023-04-28T04:37:05;4.67;;;4.17;;
38513;SDS011;24282;48.400;10.808;2023-04-28T04:39:33;5.07;;;4.33;;
38513;SDS011;24282;48.400;10.808;2023-04-28T04:41:59;5.87;;;4.47;;
38513;SDS011;24282;48.400;10.808;2023-04-28T04:44:37;5.20;;;4.10;;
38513;SDS011;24282;48.400;10.808;2023-04-28T04:47:07;4.80;;;3.87;;
38513;SDS011;24282;48.400;10.808;2023-04-28T04:49:34;6.60;;;4.50;;
38513;SDS011;24282;48.400;10.808;2023-04-28T04:52:00;7.20;;;4.37;;
38513;SDS011;24282;48.400;10.808;2023-04-28T04:54:27;5.50;;;4.27;;
38513;SDS011;24282;48.400;10.808;2023-04-28T04:56:54;5.37;;;3.80;;
38513;SDS011;24282;48.400;10.808;2023-04-28T04:59:37;7.53;;;4.97;;
38513;SDS011;24282;48.400;10.808;2023-04-28T05:02:07;6.43;;;4.23;;
38513;SDS011;24282;48.400;10.808;2023-04-28T05:04:33;5.90;;;4.30;;
38513;SDS011;24282;48.400;10.808;2023-04-28T05:06:59;6.93;;;4.40;;
38513;SDS011;24282;48.400;10.808;2023-04-28T05:09:24;5.47;;;4.67;;
38513;SDS011;24282;48.400;10.808;2023-04-28T05:11:50;5.53;;;4.40;;
38513;SDS011;24282;48.400;10.808;2023-04-28T05:14:17;4.87;;;3.87;;
38513;SDS011;24282;48.400;10.808;2023-04-28T05:16:43;5.03;;;4.13;;
38513;SDS011;24282;48.400;10.808;2023-04-28T05:19:29;5.17;;;3.80;;
38513;SDS011;24282;48.400;10.808;2023-04-28T05:21:54;4.97;;;3.67;;
38513;SDS011;24282;48.400;10.808;2023-04-28T05:24:22;5.60;;;4.00;;
38513;SDS011;24282;48.400;10.808;2023-04-28T05:26:49;6.13;;;4.10;;
38513;SDS011;24282;48.400;10.808;2023-04-28T05:29:17;5.90;;;3.80;;
38513;SDS011;24282;48.400;10.808;2023-04-28T05:31:43;8.47;;;5.20;;
38513;SDS011;24282;48.400;10.808;2023-04-28T05:34:08;7.53;;;4.93;;
38513;SDS011;24282;48.400;10.808;2023-04-28T05:36:34;6.83;;;5.00;;
38513;SDS011;24282;48.400;10.808;2023-04-28T05:39:00;7.70;;;5.90;;
38513;SDS011;24282;48.400;10.808;2023-04-28T05:41:26;6.77;;;5.40;;
38513;SDS011;24282;48.400;10.808;2023-04-28T05:43:53;9.63;;;5.40;;
38513;SDS011;24282;48.400;10.808;2023-04-28T05:46:19;7.27;;;4.53;;
38513;SDS011;24282;48.400;10.808;2023-04-28T05:48:45;7.80;;;5.50;;
38513;SDS011;24282;48.400;10.808;2023-04-28T05:51:14;6.37;;;4.37;;
38513;SDS011;24282;48.400;10.808;2023-04-28T05:53:40;4.77;;;3.83;;
38513;SDS011;24282;48.400;10.808;2023-04-28T05:56:06;6.50;;;3.63;;
38513;SDS011;24282;48.400;10.808;2023-04-28T05:58:32;4.57;;;3.30;;
38513;SDS011;24282;48.400;10.808;2023-04-28T06:00:58;4.33;;;3.30;;
38513;SDS011;24282;48.400;10.808;2023-04-28T06:03:24;4.37;;;3.30;;
38513;SDS011;24282;48.400;10.808;2023-04-28T06:05:50;4.67;;;3.13;;
38513;SDS011;24282;48.400;10.808;2023-04-28T06:08:18;4.67;;;3.40;;
38513;SDS011;24282;48.400;10.808;2023-04-28T06:10:43;5.17;;;3.00;;
38513;SDS011;24282;48.400;10.808;2023-04-28T06:13:09;5.53;;;3.57;;
38513;SDS011;24282;48.400;10.808;2023-04-28T06:15:35;4.83;;;3.97;;
38513;SDS011;24282;48.400;10.808;2023-04-28T06:18:01;5.00;;;3.60;;
38513;SDS011;24282;48.400;10.808;2023-04-28T06:20:30;4.90;;;3.80;;
38513;SDS011;24282;48.400;10.808;2023-04-28T06:22:55;6.30;;;4.07;;
38513;SDS011;24282;48.400;10.808;2023-04-28T06:25:21;5.63;;;3.90;;
38513;SDS011;24282;48.400;10.808;2023-04-28T06:27:48;4.77;;;3.07;;
38513;SDS011;24282;48.400;10.808;2023-04-28T06:30:17;4.33;;;3.50;;
38513;SDS011;24282;48.400;10.808;2023-04-28T06:32:44;5.70;;;3.40;;
38513;SDS011;24282;48.400;10.808;2023-04-28T06:35:10;4.53;;;3.73;;
38513;SDS011;24282;48.400;10.808;2023-04-28T06:37:36;4.23;;;2.83;;
38513;SDS011;24282;48.400;10.808;2023-04-28T06:40:02;4.00;;;3.07;;
38513;SDS011;24282;48.400;10.808;2023-04-28T06:42:28;4.00;;;3.10;;
38513;SDS011;24282;48.400;10.808;2023-04-28T06:44:59;5.60;;;3.63;;
38513;SDS011;24282;48.400;10.808;2023-04-28T06:47:26;6.63;;;4.40;;
38513;SDS011;24282;48.400;10.808;2023-04-28T06:49:52;5.23;;;3.57;;
38513;SDS011;24282;48.400;10.808;2023-04-28T06:52:18;6.90;;;3.57;;
38513;SDS011;24282;48.400;10.808;2023-04-28T06:54:46;4.57;;;3.10;;
38513;SDS011;24282;48.400;10.808;2023-04-28T06:57:12;4.50;;;3.13;;
38513;SDS011;24282;48.400;10.808;2023-04-28T06:59:38;5.03;;;3.00;;
38513;SDS011;24282;48.400;10.808;2023-04-28T07:02:04;3.10;;;2.50;;
38513;SDS011;24282;48.400;10.808;2023-04-28T07:04:29;4.33;;;2.47;;
38513;SDS011;24282;48.400;10.808;2023-04-28T07:06:55;3.30;;;2.23;;
38513;SDS011;24282;48.400;10.808;2023-04-28T07:09:21;4.93;;;3.20;;
38513;SDS011;24282;48.400;10.808;2023-04-28T07:11:47;3.70;;;2.80;;
38513;SDS011;24282;48.400;10.808;2023-04-28T07:14:12;4.03;;;2.70;;
38513;SDS011;24282;48.400;10.808;2023-04-28T07:16:38;4.33;;;3.00;;
38513;SDS011;24282;48.400;10.808;2023-04-28T07:19:04;3.93;;;2.50;;
38513;SDS011;24282;48.400;10.808;2023-04-28T07:21:29;4.57;;;2.73;;
38513;SDS011;24282;48.400;10.808;2023-04-28T07:23:55;4.63;;;3.10;;
38513;SDS011;24282;48.400;10.808;2023-04-28T07:26:24;4.33;;;2.70;;
38513;SDS011;24282;48.400;10.808;2023-04-28T07:28:50;4.23;;;3.00;;
38513;SDS011;24282;48.400;10.808;2023-04-28T07:31:16;6.50;;;2.90;;
38513;SDS011;24282;48.400;10.808;2023-04-28T07:33:41;3.90;;;2.70;;
38513;SDS011;24282;48.400;10.808;2023-04-28T07:36:07;4.37;;;2.73;;
38513;SDS011;24282;48.400;10.808;2023-04-28T07:38:33;4.40;;;2.77;;
38513;SDS011;24282;48.400;10.808;2023-04-28T07:41:00;4.27;;;2.90;;
38513;SDS011;24282;48.400;10.808;2023-04-28T07:43:27;3.87;;;3.00;;
38513;SDS011;24282;48.400;10.808;2023-04-28T07:45:52;3.53;;;2.90;;
38513;SDS011;24282;48.400;10.808;2023-04-28T07:48:18;5.30;;;3.10;;
38513;SDS011;24282;48.400;10.808;2023-04-28T07:50:44;4.27;;;3.07;;
38513;SDS011;24282;48.400;10.808;2023-04-28T07:53:09;4.17;;;3.10;;
38513;SDS011;24282;48.400;10.808;2023-04-28T07:55:35;4.00;;;2.90;;
38513;SDS011;24282;48.400;10.808;2023-04-28T07:58:01;4.50;;;2.47;;
38513;SDS011;24282;48.400;10.808;2023-04-28T08:00:27;4.53;;;2.33;;
38513;SDS011;24282;48.400;10.808;2023-04-28T08:02:52;3.43;;;2.30;;
38513;SDS011;24282;48.400;10.808;2023-04-28T08:05:18;4.40;;;2.67;;
38513;SDS011;24282;48.400;10.808;2023-04-28T08:07:44;5.57;;;3.20;;
38513;SDS011;24282;48.400;10.808;2023-04-28T08:10:10;4.83;;;3.23;;
38513;SDS011;24282;48.400;10.808;2023-04-28T08:12:36;3.33;;;2.43;;
38513;SDS011;24282;48.400;10.808;2023-04-28T08:15:03;4.47;;;2.30;;
38513;SDS011;24282;48.400;10.808;2023-04-28T08:17:29;3.03;;;2.00;;
38513;SDS011;24282;48.400;10.808;2023-04-28T08:19:55;2.60;;;1.60;;
38513;SDS011;24282;48.400;10.808;2023-04-28T08:22:20;4.50;;;1.87;;
38513;SDS011;24282;48.400;10.808;2023-04-28T08:24:46;2.53;;;1.40;;
38513;SDS011;24282;48.400;10.808;2023-04-28T08:27:12;2.73;;;1.97;;
38513;SDS011;24282;48.400;10.808;2023-04-28T08:29:37;3.00;;;1.87;;
38513;SDS011;24282;48.400;10.808;2023-04-28T08:32:04;2.63;;;1.70;;
38513;SDS011;24282;48.400;10.808;2023-04-28T08:34:31;3.17;;;1.57;;
38513;SDS011;24282;48.400;10.808;2023-04-28T08:36:57;3.47;;;1.63;;
38513;SDS011;24282;48.400;10.808;2023-04-28T08:39:23;3.90;;;2.07;;
38513;SDS011;24282;48.400;10.808;2023-04-28T08:41:50;4.60;;;2.47;;
38513;SDS011;24282;48.400;10.808;2023-04-28T08:44:17;3.47;;;2.43;;
38513;SDS011;24282;48.400;10.808;2023-04-28T08:46:44;2.63;;;1.87;;
38513;SDS011;24282;48.400;10.808;2023-04-28T08:49:14;3.20;;;1.80;;
38513;SDS011;24282;48.400;10.808;2023-04-28T08:51:54;2.80;;;1.77;;
38513;SDS011;24282;48.400;10.808;2023-04-28T08:54:24;2.22;;;1.52;;
38513;SDS011;24282;48.400;10.808;2023-04-28T08:56:54;1.80;;;1.47;;
38513;SDS011;24282;48.400;10.808;2023-04-28T08:59:21;3.57;;;1.63;;
38513;SDS011;24282;48.400;10.808;2023-04-28T09:01:47;2.40;;;1.53;;
38513;SDS011;24282;48.400;10.808;2023-04-28T09:04:17;2.67;;;1.40;;
38513;SDS011;24282;48.400;10.808;2023-04-28T09:06:44;3.43;;;1.60;;
38513;SDS011;24282;48.400;10.808;2023-04-28T09:09:17;2.40;;;1.30;;
38513;SDS011;24282;48.400;10.808;2023-04-28T09:11:50;2.27;;;1.30;;
38513;SDS011;24282;48.400;10.808;2023-04-28T09:14:20;1.93;;;1.43;;
38513;SDS011;24282;48.400;10.808;2023-04-28T09:16:47;1.90;;;1.30;;
38513;SDS011;24282;48.400;10.808;2023-04-28T09:19:13;2.90;;;1.50;;
38513;SDS011;24282;48.400;10.808;2023-04-28T09:21:53;3.00;;;1.60;;
38513;SDS011;24282;48.400;10.808;2023-04-28T09:26:55;4.43;;;2.10;;
38513;SDS011;24282;48.400;10.808;2023-04-28T09:29:22;2.30;;;1.30;;
38513;SDS011;24282;48.400;10.808;2023-04-28T09:31:47;3.40;;;1.60;;
38513;SDS011;24282;48.400;10.808;2023-04-28T09:34:13;2.70;;;1.63;;
38513;SDS011;24282;48.400;10.808;2023-04-28T09:36:39;3.10;;;1.73;;
38513;SDS011;24282;48.400;10.808;2023-04-28T09:39:05;2.53;;;1.60;;
38513;SDS011;24282;48.400;10.808;2023-04-28T09:41:43;3.00;;;1.50;;
38513;SDS011;24282;48.400;10.808;2023-04-28T09:44:16;2.73;;;1.63;;
38513;SDS011;24282;48.400;10.808;2023-04-28T09:46:43;2.57;;;1.50;;
38513;SDS011;24282;48.400;10.808;2023-04-28T09:49:10;2.53;;;1.63;;
38513;SDS011;24282;48.400;10.808;2023-04-28T09:51:39;3.57;;;1.50;;
38513;SDS011;24282;48.400;10.808;2023-04-28T09:54:06;2.23;;;1.50;;
38513;SDS011;24282;48.400;10.808;2023-04-28T09:56:33;2.47;;;1.53;;
38513;SDS011;24282;48.400;10.808;2023-04-28T09:59:02;2.93;;;1.47;;
38513;SDS011;24282;48.400;10.808;2023-04-28T10:01:32;1.43;;;1.10;;
38513;SDS011;24282;48.400;10.808;2023-04-28T10:04:04;1.87;;;1.30;;
38513;SDS011;24282;48.400;10.808;2023-04-28T10:06:32;2.53;;;1.30;;
38513;SDS011;24282;48.400;10.808;2023-04-28T10:09:00;1.50;;;1.20;;
38513;SDS011;24282;48.400;10.808;2023-04-28T10:11:26;1.53;;;1.17;;
38513;SDS011;24282;48.400;10.808;2023-04-28T10:13:52;1.53;;;1.10;;
38513;SDS011;24282;48.400;10.808;2023-04-28T10:16:19;2.00;;;1.37;;
38513;SDS011;24282;48.400;10.808;2023-04-28T10:18:45;3.47;;;2.10;;
38513;SDS011;24282;48.400;10.808;2023-04-28T10:21:11;3.00;;;2.20;;
38513;SDS011;24282;48.400;10.808;2023-04-28T10:26:12;2.47;;;1.40;;
38513;SDS011;24282;48.400;10.808;2023-04-28T10:28:48;1.30;;;1.03;;
38513;SDS011;24282;48.400;10.808;2023-04-28T10:31:18;2.00;;;1.20;;
38513;SDS011;24282;48.400;10.808;2023-04-28T10:33:45;2.80;;;1.30;;
38513;SDS011;24282;48.400;10.808;2023-04-28T10:36:45;1.10;;;0.90;;
38513;SDS011;24282;48.400;10.808;2023-04-28T10:39:17;1.93;;;1.10;;
38513;SDS011;24282;48.400;10.808;2023-04-28T10:41:44;4.43;;;2.23;;
38513;SDS011;24282;48.400;10.808;2023-04-28T10:47:10;2.33;;;1.50;;
38513;SDS011;24282;48.400;10.808;2023-04-28T11:00:40;2.30;;;1.70;;
38513;SDS011;24282;48.400;10.808;2023-04-28T11:03:07;3.77;;;2.20;;
38513;SDS011;24282;48.400;10.808;2023-04-28T11:05:33;3.43;;;2.00;;
38513;SDS011;24282;48.400;10.808;2023-04-28T11:08:42;2.40;;;1.30;;
38513;SDS011;24282;48.400;10.808;2023-04-28T11:11:16;1.97;;;1.10;;
38513;SDS011;24282;48.400;10.808;2023-04-28T11:13:44;1.70;;;1.07;;
38513;SDS011;24282;48.400;10.808;2023-04-28T11:16:14;2.77;;;1.43;;
38513;SDS011;24282;48.400;10.808;2023-04-28T11:21:14;2.35;;;1.15;;
38513;SDS011;24282;48.400;10.808;2023-04-28T11:23:40;1.30;;;1.00;;
38513;SDS011;24282;48.400;10.808;2023-04-28T11:26:07;2.83;;;2.20;;
38513;SDS011;24282;48.400;10.808;2023-04-28T11:28:33;1.50;;;1.03;;
38513;SDS011;24282;48.400;10.808;2023-04-28T11:31:13;2.87;;;1.07;;
38513;SDS011;24282;48.400;10.808;2023-04-28T11:33:48;1.90;;;1.20;;
38513;SDS011;24282;48.400;10.808;2023-04-28T11:36:25;3.42;;;1.02;;
38513;SDS011;24282;48.400;10.808;2023-04-28T11:38:53;1.20;;;0.88;;
38513;SDS011;24282;48.400;10.808;2023-04-28T11:41:21;1.95;;;0.90;;
38513;SDS011;24282;48.400;10.808;2023-04-28T11:43:47;1.58;;;0.90;;
38513;SDS011;24282;48.400;10.808;2023-04-28T11:46:16;1.77;;;0.70;;
38513;SDS011;24282;48.400;10.808;2023-04-28T11:48:43;1.40;;;0.95;;
38513;SDS011;24282;48.400;10.808;2023-04-28T11:51:09;1.60;;;1.00;;
38513;SDS011;24282;48.400;10.808;2023-04-28T11:53:51;4.95;;;3.45;;
38513;SDS011;24282;48.400;10.808;2023-04-28T11:56:17;1.88;;;1.13;;
38513;SDS011;24282;48.400;10.808;2023-04-28T11:58:44;1.70;;;1.30;;
38513;SDS011;24282;48.400;10.808;2023-04-28T12:01:10;1.63;;;0.90;;
38513;SDS011;24282;48.400;10.808;2023-04-28T12:03:43;0.95;;;0.60;;
38513;SDS011;24282;48.400;10.808;2023-04-28T12:06:09;1.00;;;0.60;;
38513;SDS011;24282;48.400;10.808;2023-04-28T12:08:35;1.05;;;0.80;;
38513;SDS011;24282;48.400;10.808;2023-04-28T12:11:10;1.55;;;0.73;;
38513;SDS011;24282;48.400;10.808;2023-04-28T12:13:37;1.70;;;0.95;;
38513;SDS011;24282;48.400;10.808;2023-04-28T12:16:04;2.50;;;1.75;;
38513;SDS011;24282;48.400;10.808;2023-04-28T12:18:32;3.47;;;1.60;;
38513;SDS011;24282;48.400;10.808;2023-04-28T12:20:58;2.83;;;1.27;;
38513;SDS011;24282;48.400;10.808;2023-04-28T12:23:31;1.50;;;1.02;;
38513;SDS011;24282;48.400;10.808;2023-04-28T12:25:57;1.90;;;1.20;;
38513;SDS011;24282;48.400;10.808;2023-04-28T12:28:40;2.40;;;1.25;;
38513;SDS011;24282;48.400;10.808;2023-04-28T12:31:06;1.65;;;1.20;;
38513;SDS011;24282;48.400;10.808;2023-04-28T12:33:33;2.05;;;1.30;;
38513;SDS011;24282;48.400;10.808;2023-04-28T12:36:04;2.60;;;1.02;;
38513;SDS011;24282;48.400;10.808;2023-04-28T12:38:31;1.63;;;1.30;;
38513;SDS011;24282;48.400;10.808;2023-04-28T12:40:57;2.38;;;1.60;;
38513;SDS011;24282;48.400;10.808;2023-04-28T12:43:23;2.50;;;1.70;;
38513;SDS011;24282;48.400;10.808;2023-04-28T12:45:50;3.00;;;1.88;;
38513;SDS011;24282;48.400;10.808;2023-04-28T12:48:17;1.67;;;1.15;;
38513;SDS011;24282;48.400;10.808;2023-04-28T12:50:43;1.70;;;1.15;;
38513;SDS011;24282;48.400;10.808;2023-04-28T12:53:10;2.13;;;1.30;;
38513;SDS011;24282;48.400;10.808;2023-04-28T12:55:36;1.98;;;1.02;;
38513;SDS011;24282;48.400;10.808;2023-04-28T12:58:04;1.38;;;1.20;;
38513;SDS011;24282;48.400;10.808;2023-04-28T13:00:29;2.25;;;1.30;;
38513;SDS011;24282;48.400;10.808;2023-04-28T13:02:56;2.53;;;1.35;;
38513;SDS011;24282;48.400;10.808;2023-04-28T13:05:21;2.25;;;1.63;;
38513;SDS011;24282;48.400;10.808;2023-04-28T13:07:47;2.20;;;1.40;;
38513;SDS011;24282;48.400;10.808;2023-04-28T13:10:15;1.38;;;1.13;;
38513;SDS011;24282;48.400;10.808;2023-04-28T13:12:42;1.80;;;1.23;;
38513;SDS011;24282;48.400;10.808;2023-04-28T13:15:08;1.58;;;1.20;;
38513;SDS011;24282;48.400;10.808;2023-04-28T13:17:34;1.33;;;0.90;;
38513;SDS011;24282;48.400;10.808;2023-04-28T13:19:59;0.85;;;0.73;;
38513;SDS011;24282;48.400;10.808;2023-04-28T13:22:27;1.25;;;0.90;;
38513;SDS011;24282;48.400;10.808;2023-04-28T13:24:53;1.17;;;0.90;;
38513;SDS011;24282;48.400;10.808;2023-04-28T13:27:20;1.30;;;0.80;;
38513;SDS011;24282;48.400;10.808;2023-04-28T13:29:46;1.50;;;1.02;;
38513;SDS011;24282;48.400;10.808;2023-04-28T13:32:12;1.50;;;1.10;;
38513;SDS011;24282;48.400;10.808;2023-04-28T13:34:37;4.18;;;1.30;;
38513;SDS011;24282;48.400;10.808;2023-04-28T13:37:04;6.55;;;1.92;;
38513;SDS011;24282;48.400;10.808;2023-04-28T13:39:29;2.60;;;1.42;;
38513;SDS011;24282;48.400;10.808;2023-04-28T13:41:56;4.38;;;1.73;;
38513;SDS011;24282;48.400;10.808;2023-04-28T13:44:21;1.88;;;1.10;;
38513;SDS011;24282;48.400;10.808;2023-04-28T13:46:47;1.83;;;1.20;;
38513;SDS011;24282;48.400;10.808;2023-04-28T13:49:13;2.20;;;1.25;;
38513;SDS011;24282;48.400;10.808;2023-04-28T13:51:39;1.50;;;1.00;;
38513;SDS011;24282;48.400;10.808;2023-04-28T13:54:05;1.55;;;1.15;;
38513;SDS011;24282;48.400;10.808;2023-04-28T13:56:35;1.02;;;0.60;;
38513;SDS011;24282;48.400;10.808;2023-04-28T13:59:01;0.90;;;0.70;;
38513;SDS011;24282;48.400;10.808;2023-04-28T14:01:27;1.15;;;0.80;;
38513;SDS011;24282;48.400;10.808;2023-04-28T14:03:53;0.95;;;0.55;;
38513;SDS011;24282;48.400;10.808;2023-04-28T14:06:18;0.88;;;0.65;;
38513;SDS011;24282;48.400;10.808;2023-04-28T14:08:45;0.90;;;0.50;;
38513;SDS011;24282;48.400;10.808;2023-04-28T14:11:11;1.65;;;0.80;;
38513;SDS011;24282;48.400;10.808;2023-04-28T14:13:36;1.05;;;0.70;;
38513;SDS011;24282;48.400;10.808;2023-04-28T14:16:02;1.25;;;0.77;;
38513;SDS011;24282;48.400;10.808;2023-04-28T14:18:28;1.52;;;0.90;;
38513;SDS011;24282;48.400;10.808;2023-04-28T14:20:54;1.08;;;0.77;;
38513;SDS011;24282;48.400;10.808;2023-04-28T14:23:23;1.60;;;0.80;;
38513;SDS011;24282;48.400;10.808;2023-04-28T14:25:48;2.05;;;1.00;;
38513;SDS011;24282;48.400;10.808;2023-04-28T14:28:18;1.35;;;0.95;;
38513;SDS011;24282;48.400;10.808;2023-04-28T14:30:45;1.38;;;0.95;;
38513;SDS011;24282;48.400;10.808;2023-04-28T14:33:11;1.35;;;1.00;;
38513;SDS011;24282;48.400;10.808;2023-04-28T14:35:37;2.05;;;1.25;;
38513;SDS011;24282;48.400;10.808;2023-04-28T14:38:03;2.17;;;1.00;;
38513;SDS011;24282;48.400;10.808;2023-04-28T14:40:29;1.42;;;0.88;;
38513;SDS011;24282;48.400;10.808;2023-04-28T14:42:55;1.45;;;0.95;;
38513;SDS011;24282;48.400;10.808;2023-04-28T14:45:21;1.40;;;0.80;;
38513;SDS011;24282;48.400;10.808;2023-04-28T14:47:47;1.67;;;1.13;;
38513;SDS011;24282;48.400;10.808;2023-04-28T14:50:13;3.45;;;1.25;;
38513;SDS011;24282;48.400;10.808;2023-04-28T14:52:39;2.75;;;1.40;;
38513;SDS011;24282;48.400;10.808;2023-04-28T14:55:06;1.13;;;0.90;;